createdAt,value
2018-12-31T00:00:08.709Z,9.80
2018-12-31T00:02:40.594Z,9.80
2018-12-31T00:05:09.620Z,9.70
2018-12-31T00:07:37.775Z,9.80
2018-12-31T00:10:05.729Z,9.70
2018-12-31T00:12:33.816Z,9.80
2018-12-31T00:15:02.115Z,9.70
2018-12-31T00:17:30.061Z,9.70
2018-12-31T00:19:58.134Z,9.70
2018-12-31T00:22:26.285Z,9.60
2018-12-31T00:24:54.275Z,9.60
2018-12-31T00:27:23.440Z,9.60
2018-12-31T00:29:51.443Z,9.60
2018-12-31T00:32:19.414Z,9.60
2018-12-31T00:34:49.263Z,9.60
2018-12-31T00:37:17.094Z,9.60
2018-12-31T00:39:45.061Z,9.70
2018-12-31T00:42:13.340Z,9.70
2018-12-31T00:44:41.514Z,9.70
2018-12-31T00:47:09.588Z,9.70
2018-12-31T00:49:37.640Z,9.60
2018-12-31T00:52:05.626Z,9.60
2018-12-31T00:54:33.959Z,9.60
2018-12-31T00:57:01.973Z,9.60
2018-12-31T00:59:30.147Z,9.60
2018-12-31T01:01:58.200Z,9.60
2018-12-31T01:04:26.703Z,9.60
2018-12-31T01:06:54.653Z,9.60
2018-12-31T01:09:22.619Z,9.60
2018-12-31T01:11:50.682Z,9.60
2018-12-31T01:14:18.766Z,9.60
2018-12-31T01:16:46.751Z,9.60
2018-12-31T01:19:14.720Z,9.60
2018-12-31T01:21:42.692Z,9.60
2018-12-31T01:24:10.643Z,9.60
2018-12-31T01:26:38.837Z,9.60
2018-12-31T01:29:06.905Z,9.60
2018-12-31T01:31:36.105Z,9.60
2018-12-31T01:34:04.180Z,9.60
2018-12-31T01:36:32.353Z,9.60
2018-12-31T01:39:00.293Z,9.60
2018-12-31T01:41:28.596Z,9.60
2018-12-31T01:43:56.770Z,9.60
2018-12-31T01:46:24.844Z,9.60
2018-12-31T01:48:52.914Z,9.50
2018-12-31T01:51:20.882Z,9.50
2018-12-31T01:53:48.957Z,9.60
2018-12-31T01:56:17.996Z,9.60
2018-12-31T01:58:46.122Z,9.50
2018-12-31T02:01:15.820Z,9.60
2018-12-31T02:03:44.008Z,9.50
2018-12-31T02:06:11.964Z,9.60
2018-12-31T02:08:40.149Z,9.60
2018-12-31T02:11:08.124Z,9.60
2018-12-31T02:13:36.062Z,9.60
2018-12-31T02:16:04.134Z,9.60
2018-12-31T02:18:32.129Z,9.60
2018-12-31T02:21:00.284Z,9.60
2018-12-31T02:23:28.272Z,9.60
2018-12-31T02:25:57.209Z,9.70
2018-12-31T02:28:25.339Z,9.70
2018-12-31T02:30:55.010Z,9.70
2018-12-31T02:33:22.995Z,9.60
2018-12-31T02:35:51.295Z,9.60
2018-12-31T02:38:19.555Z,9.70
2018-12-31T02:40:47.542Z,9.80
2018-12-31T02:43:17.218Z,9.80
2018-12-31T02:45:45.537Z,9.80
2018-12-31T02:48:13.618Z,9.80
2018-12-31T02:50:41.647Z,9.70
2018-12-31T02:53:09.641Z,9.80
2018-12-31T02:55:37.611Z,9.70
2018-12-31T02:58:05.656Z,9.60
2018-12-31T03:00:33.960Z,9.70
2018-12-31T03:03:02.028Z,9.70
2018-12-31T03:05:30.000Z,9.60
2018-12-31T03:07:57.969Z,9.50
2018-12-31T03:10:26.779Z,9.50
2018-12-31T03:12:56.555Z,9.50
2018-12-31T03:15:24.541Z,9.40
2018-12-31T03:17:52.587Z,9.40
2018-12-31T03:20:20.585Z,9.50
2018-12-31T03:22:48.551Z,9.60
2018-12-31T03:25:16.624Z,9.70
2018-12-31T03:27:44.569Z,9.90
2018-12-31T03:30:14.523Z,9.90
2018-12-31T03:32:42.168Z,10.00
2018-12-31T03:35:10.345Z,10.20
2018-12-31T03:37:38.415Z,10.30
2018-12-31T03:40:06.387Z,10.20
2018-12-31T03:42:34.328Z,10.20
2018-12-31T03:45:02.325Z,10.10
2018-12-31T03:47:30.476Z,10.20
2018-12-31T03:49:59.441Z,10.30
2018-12-31T03:52:28.532Z,10.50
2018-12-31T03:54:56.559Z,10.80
2018-12-31T03:57:26.666Z,11.00
2018-12-31T03:59:54.442Z,11.20
2018-12-31T04:02:23.547Z,11.40
2018-12-31T04:04:51.506Z,11.40
2018-12-31T04:07:19.781Z,11.50
2018-12-31T04:09:47.835Z,11.50
2018-12-31T04:12:16.031Z,11.60
2018-12-31T04:14:44.000Z,11.70
2018-12-31T04:17:12.070Z,11.70
2018-12-31T04:19:40.246Z,11.70
2018-12-31T04:22:08.213Z,11.60
2018-12-31T04:24:36.299Z,11.60
2018-12-31T04:27:04.254Z,11.50
2018-12-31T04:29:32.328Z,11.50
2018-12-31T04:32:02.189Z,11.40
2018-12-31T04:34:31.931Z,11.30
2018-12-31T04:37:01.393Z,11.20
2018-12-31T04:39:29.428Z,11.20
2018-12-31T04:41:57.394Z,11.10
2018-12-31T04:44:25.571Z,11.10
2018-12-31T04:46:53.643Z,11.10
2018-12-31T04:49:21.590Z,11.20
2018-12-31T04:51:49.661Z,11.20
2018-12-31T04:54:17.575Z,11.20
2018-12-31T04:56:45.723Z,11.30
2018-12-31T04:59:14.103Z,11.30
2018-12-31T05:01:42.071Z,11.40
2018-12-31T05:04:10.022Z,11.50
2018-12-31T05:06:39.463Z,11.60
2018-12-31T05:09:07.517Z,11.50
2018-12-31T05:11:35.592Z,11.50
2018-12-31T05:14:03.635Z,11.50
2018-12-31T05:16:32.573Z,11.40
2018-12-31T05:19:00.627Z,11.40
2018-12-31T05:21:28.595Z,11.40
2018-12-31T05:23:56.640Z,11.30
2018-12-31T05:26:24.737Z,11.20
2018-12-31T05:28:52.705Z,11.10
2018-12-31T05:31:20.756Z,11.00
2018-12-31T05:33:48.849Z,11.00
2018-12-31T05:36:16.820Z,10.90
2018-12-31T05:38:44.769Z,10.80
2018-12-31T05:41:14.383Z,10.70
2018-12-31T05:43:44.032Z,10.60
2018-12-31T05:46:12.279Z,10.40
2018-12-31T05:48:40.230Z,10.50
2018-12-31T05:51:08.218Z,10.40
2018-12-31T05:53:36.191Z,10.30
2018-12-31T05:56:04.465Z,10.20
2018-12-31T05:58:32.434Z,10.20
2018-12-31T06:01:00.404Z,10.10
2018-12-31T06:03:28.374Z,10.10
2018-12-31T06:05:56.344Z,10.10
2018-12-31T06:08:24.311Z,10.00
2018-12-31T06:10:52.283Z,10.00
2018-12-31T06:13:20.251Z,10.00
2018-12-31T06:15:48.323Z,9.90
2018-12-31T06:18:16.282Z,9.90
2018-12-31T06:20:44.772Z,9.90
2018-12-31T06:23:12.659Z,9.90
2018-12-31T06:25:40.794Z,10.00
2018-12-31T06:28:08.863Z,10.00
2018-12-31T06:30:36.831Z,10.00
2018-12-31T06:33:04.826Z,10.10
2018-12-31T06:35:32.795Z,10.20
2018-12-31T06:38:00.767Z,10.30
2018-12-31T06:40:28.733Z,10.30
2018-12-31T06:42:56.704Z,10.30
2018-12-31T06:45:24.647Z,10.30
2018-12-31T06:50:32.167Z,10.40
2018-12-31T06:53:00.130Z,10.40
2018-12-31T06:55:28.211Z,10.30
2018-12-31T06:57:56.195Z,10.30
2018-12-31T07:00:24.243Z,10.30
2018-12-31T07:02:52.747Z,10.30
2018-12-31T07:05:20.692Z,10.40
2018-12-31T07:07:48.664Z,10.50
2018-12-31T07:10:16.842Z,10.50
2018-12-31T07:12:45.140Z,10.50
2018-12-31T07:15:14.127Z,10.40
2018-12-31T07:17:42.483Z,10.40
2018-12-31T07:20:10.479Z,10.30
2018-12-31T07:22:38.435Z,10.30
2018-12-31T07:25:06.416Z,10.30
2018-12-31T07:27:36.253Z,10.20
2018-12-31T07:30:03.998Z,10.20
2018-12-31T07:32:32.040Z,10.20
2018-12-31T07:35:00.229Z,10.10
2018-12-31T07:37:28.413Z,10.10
2018-12-31T07:39:56.384Z,10.20
2018-12-31T07:42:24.455Z,10.50
2018-12-31T07:44:52.398Z,11.10
2018-12-31T07:47:20.702Z,11.80
2018-12-31T07:49:48.748Z,12.50
2018-12-31T07:52:16.746Z,13.30
2018-12-31T07:54:44.710Z,14.00
2018-12-31T07:57:12.783Z,14.60
2018-12-31T07:59:42.364Z,15.20
2018-12-31T08:02:10.432Z,15.80
2018-12-31T08:04:38.437Z,16.40
2018-12-31T08:07:06.382Z,16.90
2018-12-31T08:09:34.556Z,17.30
2018-12-31T08:12:02.517Z,17.90
2018-12-31T08:14:30.495Z,18.40
2018-12-31T08:16:58.563Z,18.90
2018-12-31T08:19:27.664Z,19.50
2018-12-31T08:21:55.653Z,20.10
2018-12-31T08:24:23.599Z,20.60
2018-12-31T08:26:51.671Z,21.10
2018-12-31T08:29:19.745Z,21.70
2018-12-31T08:31:47.720Z,22.10
2018-12-31T08:34:15.756Z,22.50
2018-12-31T08:36:43.780Z,23.10
2018-12-31T08:39:12.053Z,23.40
2018-12-31T08:41:40.109Z,23.80
2018-12-31T08:44:08.095Z,24.30
2018-12-31T08:46:36.064Z,24.70
2018-12-31T08:49:04.145Z,25.00
2018-12-31T08:51:35.326Z,25.40
2018-12-31T08:54:04.318Z,25.90
2018-12-31T08:56:32.348Z,26.30
2018-12-31T08:59:00.520Z,26.60
2018-12-31T09:01:28.673Z,27.00
2018-12-31T09:03:56.638Z,27.40
2018-12-31T09:06:24.612Z,27.70
2018-12-31T09:08:52.684Z,28.20
2018-12-31T09:11:20.752Z,28.50
2018-12-31T09:13:48.719Z,29.00
2018-12-31T09:16:16.893Z,29.20
2018-12-31T09:18:44.891Z,29.60
2018-12-31T09:21:13.044Z,29.90
2018-12-31T09:23:41.009Z,30.10
2018-12-31T09:26:09.825Z,30.00
2018-12-31T09:28:39.723Z,30.50
2018-12-31T09:31:07.847Z,30.60
2018-12-31T09:33:35.987Z,30.80
2018-12-31T09:36:03.939Z,30.40
2018-12-31T09:38:31.994Z,30.10
2018-12-31T09:40:59.994Z,30.10
2018-12-31T09:43:28.953Z,29.40
2018-12-31T09:45:56.957Z,29.60
2018-12-31T09:48:27.028Z,29.90
2018-12-31T09:50:54.718Z,29.60
2018-12-31T09:53:22.712Z,29.00
2018-12-31T09:55:50.651Z,29.00
2018-12-31T09:58:18.606Z,29.50
2018-12-31T10:00:46.482Z,29.80
2018-12-31T10:03:14.555Z,30.20
2018-12-31T10:05:42.436Z,30.10
2018-12-31T10:08:10.398Z,30.30
2018-12-31T10:10:38.456Z,30.40
2018-12-31T10:13:06.429Z,30.60
2018-12-31T10:15:34.433Z,30.30
2018-12-31T10:18:02.516Z,30.20
2018-12-31T10:20:32.200Z,30.00
2018-12-31T10:23:00.155Z,29.80
2018-12-31T10:25:28.647Z,30.20
2018-12-31T10:27:57.625Z,30.40
2018-12-31T10:30:25.629Z,30.80
2018-12-31T10:32:54.398Z,31.00
2018-12-31T10:35:22.387Z,31.10
2018-12-31T10:37:50.354Z,31.20
2018-12-31T10:40:18.300Z,31.20
2018-12-31T10:42:46.267Z,31.40
2018-12-31T10:45:14.466Z,31.30
2018-12-31T10:47:42.441Z,31.60
2018-12-31T10:50:10.483Z,30.80
2018-12-31T10:52:38.482Z,30.70
2018-12-31T10:55:06.733Z,31.10
2018-12-31T10:57:34.724Z,31.70
2018-12-31T11:00:02.696Z,31.80
2018-12-31T11:02:30.638Z,32.00
2018-12-31T11:04:58.839Z,32.00
2018-12-31T11:07:26.910Z,32.40
2018-12-31T11:09:54.981Z,32.90
2018-12-31T11:12:23.031Z,33.10
2018-12-31T11:14:50.994Z,32.70
2018-12-31T11:17:18.993Z,32.20
2018-12-31T11:19:47.242Z,31.40
2018-12-31T11:22:15.314Z,30.20
2018-12-31T11:24:43.386Z,29.30
2018-12-31T11:27:11.383Z,28.00
2018-12-31T11:29:39.351Z,26.90
2018-12-31T11:32:07.324Z,26.10
2018-12-31T11:34:35.288Z,25.00
2018-12-31T11:37:04.969Z,23.90
2018-12-31T11:39:32.970Z,22.80
2018-12-31T11:42:02.647Z,21.80
2018-12-31T11:44:30.651Z,21.10
2018-12-31T11:46:58.826Z,20.50
2018-12-31T11:49:26.976Z,20.30
2018-12-31T11:51:56.965Z,19.90
2018-12-31T11:54:24.963Z,19.40
2018-12-31T11:56:52.953Z,19.30
2018-12-31T11:59:21.025Z,19.20
2018-12-31T12:01:49.304Z,19.20
2018-12-31T12:04:17.374Z,19.20
2018-12-31T12:06:45.344Z,19.30
2018-12-31T12:09:13.312Z,19.40
2018-12-31T12:11:41.260Z,19.50
2018-12-31T12:14:09.356Z,19.60
2018-12-31T12:16:37.327Z,19.60
2018-12-31T12:19:05.808Z,19.50
2018-12-31T12:21:33.756Z,19.70
2018-12-31T12:24:01.731Z,19.80
2018-12-31T12:26:29.717Z,20.10
2018-12-31T12:28:57.686Z,20.70
2018-12-31T12:31:25.652Z,21.20
2018-12-31T12:33:53.679Z,21.90
2018-12-31T12:36:22.000Z,22.30
2018-12-31T12:38:53.044Z,22.90
2018-12-31T12:41:21.296Z,23.40
2018-12-31T12:43:49.396Z,24.10
2018-12-31T12:46:17.668Z,25.20
2018-12-31T12:48:47.291Z,25.20
2018-12-31T12:51:15.327Z,25.70
2018-12-31T12:53:45.173Z,26.40
2018-12-31T12:56:13.863Z,26.50
2018-12-31T12:58:41.996Z,27.00
2018-12-31T13:01:09.991Z,27.40
2018-12-31T13:03:37.935Z,27.50
2018-12-31T13:06:05.931Z,28.40
2018-12-31T13:08:33.901Z,28.40
2018-12-31T13:11:02.281Z,28.20
2018-12-31T13:13:30.245Z,28.10
2018-12-31T13:15:59.107Z,28.30
2018-12-31T13:18:27.107Z,27.50
2018-12-31T13:20:55.178Z,25.70
2018-12-31T13:23:25.590Z,24.10
2018-12-31T13:25:53.472Z,22.80
2018-12-31T13:28:21.751Z,21.60
2018-12-31T13:30:49.699Z,20.30
2018-12-31T13:33:17.659Z,19.60
2018-12-31T13:35:47.575Z,19.10
2018-12-31T13:38:15.552Z,18.60
2018-12-31T13:40:44.735Z,18.30
2018-12-31T13:43:14.146Z,17.90
2018-12-31T13:45:42.118Z,17.60
2018-12-31T13:48:10.196Z,17.40
2018-12-31T13:50:38.162Z,17.20
2018-12-31T13:53:06.155Z,17.00
2018-12-31T13:55:34.101Z,16.80
2018-12-31T13:58:03.319Z,16.70
2018-12-31T14:00:31.268Z,16.50
2018-12-31T14:02:59.258Z,16.50
2018-12-31T14:05:27.511Z,16.30
2018-12-31T14:07:55.515Z,16.30
2018-12-31T14:10:23.661Z,16.20
2018-12-31T14:12:52.633Z,16.10
2018-12-31T14:15:23.584Z,16.00
2018-12-31T14:17:51.684Z,16.00
2018-12-31T14:20:19.655Z,15.90
2018-12-31T14:22:47.606Z,15.90
2018-12-31T14:25:15.595Z,15.70
2018-12-31T14:27:43.974Z,15.70
2018-12-31T14:30:12.043Z,15.70
2018-12-31T14:32:41.947Z,15.70
2018-12-31T14:35:09.611Z,15.60
2018-12-31T14:37:37.905Z,15.60
2018-12-31T14:40:06.379Z,15.60
2018-12-31T14:42:35.440Z,15.60
2018-12-31T14:45:03.445Z,15.50
2018-12-31T14:47:31.393Z,15.50
2018-12-31T14:50:01.186Z,15.50
2018-12-31T14:52:30.088Z,15.40
2018-12-31T14:54:58.292Z,15.30
2018-12-31T14:57:26.235Z,15.20
2018-12-31T14:59:54.437Z,15.10
2018-12-31T15:02:22.484Z,15.10
2018-12-31T15:04:50.479Z,15.00
2018-12-31T15:07:18.626Z,15.00
2018-12-31T15:09:46.700Z,14.90
2018-12-31T15:12:14.691Z,15.00
2018-12-31T15:14:42.866Z,15.10
2018-12-31T15:17:11.039Z,15.00
2018-12-31T15:19:39.705Z,15.00
2018-12-31T15:22:07.799Z,14.90
2018-12-31T15:24:37.470Z,15.00
2018-12-31T15:27:05.460Z,14.90
2018-12-31T15:29:35.300Z,14.90
2018-12-31T15:32:05.193Z,14.90
2018-12-31T15:34:32.870Z,14.80
2018-12-31T15:37:01.223Z,14.70
2018-12-31T15:39:29.395Z,14.60
2018-12-31T15:41:57.495Z,14.50
2018-12-31T15:44:26.081Z,14.40
2018-12-31T15:46:55.508Z,14.40
2018-12-31T15:49:23.535Z,14.30
2018-12-31T15:51:51.461Z,14.30
2018-12-31T15:54:19.599Z,14.30
2018-12-31T15:56:47.546Z,14.30
2018-12-31T15:59:15.510Z,14.40
2018-12-31T16:01:43.480Z,14.50
2018-12-31T16:04:11.447Z,14.60
2018-12-31T16:06:39.519Z,14.60
2018-12-31T16:09:07.718Z,14.70
2018-12-31T16:11:36.103Z,14.80
2018-12-31T16:14:04.273Z,14.90
2018-12-31T16:16:32.220Z,14.80
2018-12-31T16:19:00.415Z,14.90
2018-12-31T16:21:28.387Z,15.00
2018-12-31T16:23:56.354Z,15.00
2018-12-31T16:26:26.369Z,15.10
2018-12-31T16:28:54.135Z,15.00
2018-12-31T16:31:22.078Z,15.00
2018-12-31T16:33:50.049Z,15.10
2018-12-31T16:36:18.148Z,15.10
2018-12-31T16:38:47.943Z,15.00
2018-12-31T16:41:16.141Z,14.90
2018-12-31T16:43:44.445Z,14.80
2018-12-31T16:46:13.280Z,14.80
2018-12-31T16:48:41.348Z,14.60
2018-12-31T16:51:09.727Z,14.50
2018-12-31T16:53:37.928Z,14.40
2018-12-31T16:56:05.896Z,14.50
2018-12-31T16:58:35.214Z,14.60
2018-12-31T17:01:03.248Z,14.60
2018-12-31T17:03:31.520Z,14.40
2018-12-31T17:05:59.604Z,14.30
2018-12-31T17:08:28.695Z,14.20
2018-12-31T17:10:56.887Z,14.20
2018-12-31T17:13:24.832Z,14.20
2018-12-31T17:18:39.098Z,14.00
2018-12-31T17:21:07.095Z,13.90
2018-12-31T17:23:35.241Z,13.70
2018-12-31T17:26:03.311Z,13.70
2018-12-31T17:28:31.390Z,13.60
2018-12-31T17:30:59.383Z,13.50
2018-12-31T17:33:29.139Z,13.40
2018-12-31T17:35:57.137Z,13.30
2018-12-31T17:38:25.233Z,13.20
2018-12-31T17:40:53.612Z,13.10
2018-12-31T17:43:21.581Z,13.00
2018-12-31T17:45:49.527Z,12.90
2018-12-31T17:48:17.599Z,12.90
2018-12-31T17:50:45.570Z,12.80
2018-12-31T17:53:13.768Z,12.80
2018-12-31T17:55:41.843Z,12.80
2018-12-31T17:58:09.808Z,12.80
2018-12-31T18:00:37.983Z,12.90
2018-12-31T18:03:05.951Z,12.90
2018-12-31T18:05:33.921Z,13.00
2018-12-31T18:08:02.287Z,13.10
2018-12-31T18:10:30.270Z,13.20
2018-12-31T18:12:58.238Z,13.20
2018-12-31T18:15:26.183Z,13.20
2018-12-31T18:17:54.257Z,13.30
2018-12-31T18:20:22.588Z,13.30
2018-12-31T18:22:50.388Z,13.20
2018-12-31T18:25:18.244Z,13.30
2018-12-31T18:27:46.420Z,13.20
2018-12-31T18:30:14.304Z,13.30
2018-12-31T18:32:42.224Z,13.30
2018-12-31T18:35:10.679Z,13.20
2018-12-31T18:37:41.845Z,13.20
2018-12-31T18:40:11.222Z,13.20
2018-12-31T18:42:39.198Z,13.20
2018-12-31T18:45:07.141Z,13.20
2018-12-31T18:47:35.647Z,13.10
2018-12-31T18:50:03.692Z,13.00
2018-12-31T18:52:31.665Z,13.00
2018-12-31T18:55:01.478Z,12.90
2018-12-31T18:57:31.110Z,12.80
2018-12-31T18:59:59.294Z,12.70
2018-12-31T19:29:13.927Z,12.20
2018-12-31T19:31:41.872Z,12.10
2018-12-31T19:34:09.844Z,12.00
2018-12-31T19:36:37.805Z,12.00
2018-12-31T19:39:05.988Z,12.10
2018-12-31T19:41:33.976Z,12.10
2018-12-31T19:44:03.492Z,12.20
2018-12-31T19:46:31.658Z,12.30
2018-12-31T19:48:59.628Z,12.40
2018-12-31T19:51:27.595Z,12.50
2018-12-31T19:53:55.567Z,12.60
2018-12-31T19:56:23.536Z,12.60
2018-12-31T19:58:53.321Z,12.80
2018-12-31T20:01:21.329Z,12.90
2018-12-31T20:03:49.489Z,13.10
2018-12-31T20:06:36.219Z,13.20
2018-12-31T20:09:04.966Z,13.30
2018-12-31T20:11:33.264Z,13.30
2018-12-31T20:14:01.334Z,13.40
2018-12-31T20:16:30.881Z,13.50
2018-12-31T20:18:58.912Z,13.50
2018-12-31T20:21:27.190Z,13.70
2018-12-31T20:23:55.131Z,13.70
2018-12-31T20:26:23.208Z,13.80
2018-12-31T20:28:51.506Z,13.90
2018-12-31T20:31:19.656Z,13.90
2018-12-31T20:33:47.627Z,14.00
2018-12-31T20:36:15.786Z,13.90
2018-12-31T20:38:44.081Z,13.90
2018-12-31T20:41:12.070Z,13.70
2018-12-31T20:43:40.348Z,13.60
2018-12-31T20:46:08.316Z,13.50
2018-12-31T20:48:36.261Z,13.40
2018-12-31T20:51:04.230Z,13.30
2018-12-31T20:53:32.431Z,13.30
2018-12-31T20:56:00.403Z,13.20
2018-12-31T20:58:29.803Z,13.00
2018-12-31T21:00:58.941Z,12.90
2018-12-31T21:03:27.071Z,12.80
2018-12-31T21:05:55.451Z,12.70
2018-12-31T21:08:24.365Z,12.60
2018-12-31T21:10:53.443Z,12.50
2018-12-31T21:13:21.512Z,12.40
2018-12-31T21:15:49.453Z,12.30
2018-12-31T21:18:17.567Z,12.30
2018-12-31T21:20:45.519Z,12.30
2018-12-31T21:23:13.678Z,12.20
2018-12-31T21:25:41.675Z,12.10
2018-12-31T21:28:09.609Z,12.10
2018-12-31T21:30:37.579Z,12.00
2018-12-31T21:33:06.677Z,12.00
2018-12-31T21:35:34.645Z,11.90
2018-12-31T21:38:02.722Z,11.90
2018-12-31T21:40:30.711Z,11.80
2018-12-31T21:42:59.590Z,11.70
2018-12-31T21:45:27.776Z,11.70
2018-12-31T21:47:57.638Z,11.60
2018-12-31T21:50:25.661Z,11.60
2018-12-31T21:52:55.278Z,11.50
2018-12-31T21:55:23.420Z,11.50
2018-12-31T21:57:53.235Z,11.50
2018-12-31T22:00:21.224Z,11.40
2018-12-31T22:02:56.831Z,11.40
2018-12-31T22:05:18.981Z,11.40
2018-12-31T22:07:47.079Z,11.40
2018-12-31T22:10:16.115Z,11.30
2018-12-31T22:12:44.116Z,11.30
2018-12-31T22:15:12.110Z,11.20
2018-12-31T22:17:40.082Z,11.20
2018-12-31T22:20:08.152Z,11.10
2018-12-31T22:22:36.207Z,11.10
2018-12-31T22:25:04.196Z,11.00
2018-12-31T22:27:32.965Z,11.00
2018-12-31T22:30:01.056Z,11.00
2018-12-31T22:32:29.332Z,11.00
2018-12-31T22:34:57.276Z,11.00
2018-12-31T22:37:25.244Z,11.00
2018-12-31T22:39:53.238Z,11.00
2018-12-31T22:42:21.335Z,11.00
2018-12-31T22:44:49.361Z,10.90
2018-12-31T22:47:17.557Z,10.90
2018-12-31T22:49:46.580Z,10.80
2018-12-31T22:52:14.593Z,10.80
2018-12-31T22:54:43.102Z,10.80
2018-12-31T22:57:11.176Z,10.70
2018-12-31T22:59:39.124Z,10.70
2018-12-31T23:02:07.319Z,10.60
2018-12-31T23:04:35.391Z,10.50
2018-12-31T23:07:03.358Z,10.50
2018-12-31T23:09:31.434Z,10.50
2018-12-31T23:12:00.527Z,10.50
2018-12-31T23:14:28.471Z,10.40
2018-12-31T23:16:56.568Z,10.40
2018-12-31T23:19:26.251Z,10.40
2018-12-31T23:21:54.250Z,10.40
2018-12-31T23:24:22.205Z,10.40
2018-12-31T23:26:51.312Z,10.40
2018-12-31T23:29:19.285Z,10.40
2018-12-31T23:31:47.353Z,10.40
2018-12-31T23:34:15.440Z,10.50
2018-12-31T23:36:45.099Z,10.40
2018-12-31T23:39:13.208Z,10.40
2018-12-31T23:41:41.175Z,10.50
2018-12-31T23:44:09.130Z,10.40
2018-12-31T23:46:37.234Z,10.40
2018-12-31T23:49:05.195Z,10.40
2018-12-31T23:51:33.261Z,10.30
2018-12-31T23:54:01.843Z,10.40
2018-12-31T23:56:29.992Z,10.40
2018-12-31T23:58:58.091Z,10.40
